sensor_id;sensor_type;location;lat;lon;timestamp;P1;durP1;ratioP1;P2;durP2;ratioP2
50932;SDS011;36921;49.006;9.292;2023-03-23T00:01:20;2.33;;;1.33;;
50932;SDS011;36921;49.006;9.292;2023-03-23T00:03:47;2.03;;;1.27;;
50932;SDS011;36921;49.006;9.292;2023-03-23T00:06:15;2.45;;;1.02;;
50932;SDS011;36921;49.006;9.292;2023-03-23T00:08:46;3.35;;;1.15;;
50932;SDS011;36921;49.006;9.292;2023-03-23T00:13:41;5.18;;;1.40;;
50932;SDS011;36921;49.006;9.292;2023-03-23T00:16:08;4.20;;;1.45;;
50932;SDS011;36921;49.006;9.292;2023-03-23T00:18:42;3.58;;;1.55;;
50932;SDS011;36921;49.006;9.292;2023-03-23T00:21:17;2.22;;;1.27;;
50932;SDS011;36921;49.006;9.292;2023-03-23T00:23:57;3.17;;;1.20;;
50932;SDS011;36921;49.006;9.292;2023-03-23T00:26:24;2.90;;;1.33;;
50932;SDS011;36921;49.006;9.292;2023-03-23T00:28:53;2.65;;;1.10;;
50932;SDS011;36921;49.006;9.292;2023-03-23T00:31:19;3.17;;;1.27;;
50932;SDS011;36921;49.006;9.292;2023-03-23T00:33:44;4.40;;;1.15;;
50932;SDS011;36921;49.006;9.292;2023-03-23T00:36:10;3.08;;;1.23;;
50932;SDS011;36921;49.006;9.292;2023-03-23T00:38:37;5.05;;;1.10;;
50932;SDS011;36921;49.006;9.292;2023-03-23T00:41:05;2.03;;;1.35;;
50932;SDS011;36921;49.006;9.292;2023-03-23T00:43:32;3.58;;;1.33;;
50932;SDS011;36921;49.006;9.292;2023-03-23T00:48:27;3.35;;;1.30;;
50932;SDS011;36921;49.006;9.292;2023-03-23T00:50:54;1.58;;;0.85;;
50932;SDS011;36921;49.006;9.292;2023-03-23T00:53:19;1.50;;;0.80;;
50932;SDS011;36921;49.006;9.292;2023-03-23T00:55:46;2.83;;;0.82;;
50932;SDS011;36921;49.006;9.292;2023-03-23T00:58:13;2.33;;;1.00;;
50932;SDS011;36921;49.006;9.292;2023-03-23T01:00:39;1.50;;;0.93;;
50932;SDS011;36921;49.006;9.292;2023-03-23T01:03:05;1.80;;;0.95;;
50932;SDS011;36921;49.006;9.292;2023-03-23T01:05:36;3.40;;;0.80;;
50932;SDS011;36921;49.006;9.292;2023-03-23T01:10:28;2.10;;;1.10;;
50932;SDS011;36921;49.006;9.292;2023-03-23T01:12:57;1.10;;;0.93;;
50932;SDS011;36921;49.006;9.292;2023-03-23T01:15:25;1.73;;;0.80;;
50932;SDS011;36921;49.006;9.292;2023-03-23T01:17:50;1.98;;;0.98;;
50932;SDS011;36921;49.006;9.292;2023-03-23T01:20:15;2.33;;;0.88;;
50932;SDS011;36921;49.006;9.292;2023-03-23T01:22:42;1.88;;;0.90;;
50932;SDS011;36921;49.006;9.292;2023-03-23T01:25:08;1.80;;;0.90;;
50932;SDS011;36921;49.006;9.292;2023-03-23T01:27:36;2.35;;;0.88;;
50932;SDS011;36921;49.006;9.292;2023-03-23T01:30:02;2.15;;;0.88;;
50932;SDS011;36921;49.006;9.292;2023-03-23T01:32:29;1.80;;;0.70;;
50932;SDS011;36921;49.006;9.292;2023-03-23T01:34:54;2.90;;;0.93;;
50932;SDS011;36921;49.006;9.292;2023-03-23T01:37:20;1.80;;;0.88;;
50932;SDS011;36921;49.006;9.292;2023-03-23T01:39:51;1.77;;;0.85;;
50932;SDS011;36921;49.006;9.292;2023-03-23T01:42:24;5.05;;;0.95;;
50932;SDS011;36921;49.006;9.292;2023-03-23T01:47:16;2.22;;;0.90;;
50932;SDS011;36921;49.006;9.292;2023-03-23T01:49:46;1.83;;;0.90;;
50932;SDS011;36921;49.006;9.292;2023-03-23T01:52:15;4.13;;;0.85;;
50932;SDS011;36921;49.006;9.292;2023-03-23T01:54:46;2.78;;;1.05;;
50932;SDS011;36921;49.006;9.292;2023-03-23T01:57:23;5.40;;;0.90;;
50932;SDS011;36921;49.006;9.292;2023-03-23T01:59:52;5.53;;;1.13;;
50932;SDS011;36921;49.006;9.292;2023-03-23T02:02:21;1.58;;;0.90;;
50932;SDS011;36921;49.006;9.292;2023-03-23T02:04:47;5.05;;;0.80;;
50932;SDS011;36921;49.006;9.292;2023-03-23T02:07:14;2.60;;;0.90;;
50932;SDS011;36921;49.006;9.292;2023-03-23T02:09:42;2.13;;;1.10;;
50932;SDS011;36921;49.006;9.292;2023-03-23T02:12:07;1.90;;;0.80;;
50932;SDS011;36921;49.006;9.292;2023-03-23T02:14:33;4.05;;;1.23;;
50932;SDS011;36921;49.006;9.292;2023-03-23T02:19:40;2.13;;;1.05;;
50932;SDS011;36921;49.006;9.292;2023-03-23T02:25:25;3.40;;;1.00;;
50932;SDS011;36921;49.006;9.292;2023-03-23T02:33:43;2.25;;;1.17;;
50932;SDS011;36921;49.006;9.292;2023-03-23T02:36:19;2.35;;;1.13;;
50932;SDS011;36921;49.006;9.292;2023-03-23T02:39:01;2.05;;;0.80;;
50932;SDS011;36921;49.006;9.292;2023-03-23T02:41:32;1.98;;;1.00;;
50932;SDS011;36921;49.006;9.292;2023-03-23T02:44:05;1.77;;;0.95;;
50932;SDS011;36921;49.006;9.292;2023-03-23T02:46:32;2.38;;;0.90;;
50932;SDS011;36921;49.006;9.292;2023-03-23T02:49:00;4.43;;;1.08;;
50932;SDS011;36921;49.006;9.292;2023-03-23T02:51:27;2.63;;;1.00;;
50932;SDS011;36921;49.006;9.292;2023-03-23T02:53:54;1.88;;;1.10;;
50932;SDS011;36921;49.006;9.292;2023-03-23T02:56:21;1.50;;;0.90;;
50932;SDS011;36921;49.006;9.292;2023-03-23T02:58:50;1.80;;;1.20;;
50932;SDS011;36921;49.006;9.292;2023-03-23T03:01:16;2.17;;;1.00;;
50932;SDS011;36921;49.006;9.292;2023-03-23T03:04:23;1.92;;;0.95;;
50932;SDS011;36921;49.006;9.292;2023-03-23T03:09:30;1.90;;;1.00;;
50932;SDS011;36921;49.006;9.292;2023-03-23T03:15:23;2.08;;;1.10;;
50932;SDS011;36921;49.006;9.292;2023-03-23T03:20:53;1.88;;;0.88;;
50932;SDS011;36921;49.006;9.292;2023-03-23T03:23:23;4.82;;;0.98;;
50932;SDS011;36921;49.006;9.292;2023-03-23T03:28:22;2.17;;;1.10;;
50932;SDS011;36921;49.006;9.292;2023-03-23T03:30:53;2.75;;;0.82;;
50932;SDS011;36921;49.006;9.292;2023-03-23T03:33:23;1.75;;;1.00;;
50932;SDS011;36921;49.006;9.292;2023-03-23T03:35:55;3.00;;;0.95;;
50932;SDS011;36921;49.006;9.292;2023-03-23T03:38:23;1.92;;;1.20;;
50932;SDS011;36921;49.006;9.292;2023-03-23T03:40:50;2.25;;;0.80;;
50932;SDS011;36921;49.006;9.292;2023-03-23T03:43:16;3.45;;;1.02;;
50932;SDS011;36921;49.006;9.292;2023-03-23T03:45:41;2.65;;;1.17;;
50932;SDS011;36921;49.006;9.292;2023-03-23T03:48:07;1.45;;;1.00;;
50932;SDS011;36921;49.006;9.292;2023-03-23T03:50:33;2.13;;;1.00;;
50932;SDS011;36921;49.006;9.292;2023-03-23T03:52:58;4.30;;;1.20;;
50932;SDS011;36921;49.006;9.292;2023-03-23T03:55:24;2.05;;;0.80;;
50932;SDS011;36921;49.006;9.292;2023-03-23T03:57:50;1.95;;;1.08;;
50932;SDS011;36921;49.006;9.292;2023-03-23T04:00:15;2.97;;;0.93;;
50932;SDS011;36921;49.006;9.292;2023-03-23T04:02:45;4.75;;;1.58;;
50932;SDS011;36921;49.006;9.292;2023-03-23T04:05:19;4.03;;;1.65;;
50932;SDS011;36921;49.006;9.292;2023-03-23T04:07:46;3.05;;;1.10;;
50932;SDS011;36921;49.006;9.292;2023-03-23T04:10:14;2.53;;;1.00;;
50932;SDS011;36921;49.006;9.292;2023-03-23T04:12:40;1.88;;;0.90;;
50932;SDS011;36921;49.006;9.292;2023-03-23T04:15:05;1.65;;;1.00;;
50932;SDS011;36921;49.006;9.292;2023-03-23T04:17:32;2.10;;;1.20;;
50932;SDS011;36921;49.006;9.292;2023-03-23T04:19:58;5.93;;;1.15;;
50932;SDS011;36921;49.006;9.292;2023-03-23T04:22:25;4.18;;;1.08;;
50932;SDS011;36921;49.006;9.292;2023-03-23T04:24:55;2.08;;;1.02;;
50932;SDS011;36921;49.006;9.292;2023-03-23T04:27:23;2.67;;;1.10;;
50932;SDS011;36921;49.006;9.292;2023-03-23T04:29:49;1.42;;;0.98;;
50932;SDS011;36921;49.006;9.292;2023-03-23T04:32:15;1.02;;;0.80;;
50932;SDS011;36921;49.006;9.292;2023-03-23T04:34:42;1.58;;;1.00;;
50932;SDS011;36921;49.006;9.292;2023-03-23T04:37:08;4.60;;;1.10;;
50932;SDS011;36921;49.006;9.292;2023-03-23T04:39:33;2.47;;;1.13;;
50932;SDS011;36921;49.006;9.292;2023-03-23T04:41:59;5.40;;;1.13;;
50932;SDS011;36921;49.006;9.292;2023-03-23T04:44:25;3.80;;;1.20;;
50932;SDS011;36921;49.006;9.292;2023-03-23T04:46:52;2.40;;;1.40;;
50932;SDS011;36921;49.006;9.292;2023-03-23T04:49:19;2.15;;;1.00;;
50932;SDS011;36921;49.006;9.292;2023-03-23T04:51:46;2.33;;;1.17;;
50932;SDS011;36921;49.006;9.292;2023-03-23T04:54:12;3.08;;;1.05;;
50932;SDS011;36921;49.006;9.292;2023-03-23T04:56:37;6.75;;;1.27;;
50932;SDS011;36921;49.006;9.292;2023-03-23T04:59:03;4.68;;;1.50;;
50932;SDS011;36921;49.006;9.292;2023-03-23T05:01:28;3.55;;;1.40;;
50932;SDS011;36921;49.006;9.292;2023-03-23T05:03:54;4.05;;;1.38;;
50932;SDS011;36921;49.006;9.292;2023-03-23T05:06:19;2.72;;;1.55;;
50932;SDS011;36921;49.006;9.292;2023-03-23T05:08:45;3.28;;;1.15;;
50932;SDS011;36921;49.006;9.292;2023-03-23T05:11:10;2.90;;;1.15;;
50932;SDS011;36921;49.006;9.292;2023-03-23T05:13:37;3.92;;;1.20;;
50932;SDS011;36921;49.006;9.292;2023-03-23T05:16:03;3.80;;;1.27;;
50932;SDS011;36921;49.006;9.292;2023-03-23T05:18:29;2.92;;;1.30;;
50932;SDS011;36921;49.006;9.292;2023-03-23T05:20:59;1.85;;;1.10;;
50932;SDS011;36921;49.006;9.292;2023-03-23T05:23:25;1.58;;;1.02;;
50932;SDS011;36921;49.006;9.292;2023-03-23T05:25:54;2.40;;;1.08;;
50932;SDS011;36921;49.006;9.292;2023-03-23T05:28:21;1.88;;;0.98;;
50932;SDS011;36921;49.006;9.292;2023-03-23T05:30:47;2.67;;;1.13;;
50932;SDS011;36921;49.006;9.292;2023-03-23T05:33:13;1.75;;;1.02;;
50932;SDS011;36921;49.006;9.292;2023-03-23T05:35:39;2.28;;;1.20;;
50932;SDS011;36921;49.006;9.292;2023-03-23T05:38:04;4.35;;;1.10;;
50932;SDS011;36921;49.006;9.292;2023-03-23T05:40:31;1.38;;;1.00;;
50932;SDS011;36921;49.006;9.292;2023-03-23T05:42:56;3.83;;;1.33;;
50932;SDS011;36921;49.006;9.292;2023-03-23T05:45:24;3.00;;;1.27;;
50932;SDS011;36921;49.006;9.292;2023-03-23T05:47:51;2.00;;;1.00;;
50932;SDS011;36921;49.006;9.292;2023-03-23T05:50:16;2.17;;;1.20;;
50932;SDS011;36921;49.006;9.292;2023-03-23T05:52:42;2.22;;;1.10;;
50932;SDS011;36921;49.006;9.292;2023-03-23T05:55:08;3.30;;;1.30;;
50932;SDS011;36921;49.006;9.292;2023-03-23T05:57:34;2.15;;;1.15;;
50932;SDS011;36921;49.006;9.292;2023-03-23T06:00:00;2.17;;;1.20;;
50932;SDS011;36921;49.006;9.292;2023-03-23T06:02:31;1.35;;;0.90;;
50932;SDS011;36921;49.006;9.292;2023-03-23T06:04:56;3.60;;;1.20;;
50932;SDS011;36921;49.006;9.292;2023-03-23T06:07:24;1.83;;;0.98;;
50932;SDS011;36921;49.006;9.292;2023-03-23T06:09:50;3.10;;;1.13;;
50932;SDS011;36921;49.006;9.292;2023-03-23T06:12:16;2.83;;;0.95;;
50932;SDS011;36921;49.006;9.292;2023-03-23T06:14:45;2.47;;;1.05;;
50932;SDS011;36921;49.006;9.292;2023-03-23T06:17:14;4.05;;;1.08;;
50932;SDS011;36921;49.006;9.292;2023-03-23T06:19:41;2.80;;;1.30;;
50932;SDS011;36921;49.006;9.292;2023-03-23T06:22:06;2.40;;;1.17;;
50932;SDS011;36921;49.006;9.292;2023-03-23T06:24:32;3.30;;;1.00;;
50932;SDS011;36921;49.006;9.292;2023-03-23T06:26:58;2.45;;;1.20;;
50932;SDS011;36921;49.006;9.292;2023-03-23T06:29:24;6.25;;;2.20;;
50932;SDS011;36921;49.006;9.292;2023-03-23T06:31:51;4.95;;;2.20;;
50932;SDS011;36921;49.006;9.292;2023-03-23T06:34:21;5.90;;;1.27;;
50932;SDS011;36921;49.006;9.292;2023-03-23T06:36:48;2.78;;;1.20;;
50932;SDS011;36921;49.006;9.292;2023-03-23T06:39:13;3.67;;;1.38;;
50932;SDS011;36921;49.006;9.292;2023-03-23T06:41:38;3.55;;;1.20;;
50932;SDS011;36921;49.006;9.292;2023-03-23T06:44:04;2.05;;;1.10;;
50932;SDS011;36921;49.006;9.292;2023-03-23T06:46:31;6.00;;;1.52;;
50932;SDS011;36921;49.006;9.292;2023-03-23T06:48:57;3.90;;;1.10;;
50932;SDS011;36921;49.006;9.292;2023-03-23T06:51:22;2.40;;;1.20;;
50932;SDS011;36921;49.006;9.292;2023-03-23T06:53:48;3.38;;;0.88;;
50932;SDS011;36921;49.006;9.292;2023-03-23T06:56:13;1.73;;;1.00;;
50932;SDS011;36921;49.006;9.292;2023-03-23T06:58:39;3.97;;;0.95;;
50932;SDS011;36921;49.006;9.292;2023-03-23T07:01:07;1.35;;;0.82;;
50932;SDS011;36921;49.006;9.292;2023-03-23T07:03:33;2.40;;;0.88;;
50932;SDS011;36921;49.006;9.292;2023-03-23T07:05:59;4.80;;;1.20;;
50932;SDS011;36921;49.006;9.292;2023-03-23T07:08:25;6.13;;;1.40;;
50932;SDS011;36921;49.006;9.292;2023-03-23T07:10:51;2.20;;;1.00;;
50932;SDS011;36921;49.006;9.292;2023-03-23T07:13:18;5.55;;;1.15;;
50932;SDS011;36921;49.006;9.292;2023-03-23T07:15:44;3.00;;;1.23;;
50932;SDS011;36921;49.006;9.292;2023-03-23T07:18:10;5.57;;;1.38;;
50932;SDS011;36921;49.006;9.292;2023-03-23T07:20:35;4.88;;;1.25;;
50932;SDS011;36921;49.006;9.292;2023-03-23T07:23:01;7.68;;;1.27;;
50932;SDS011;36921;49.006;9.292;2023-03-23T07:25:27;4.22;;;1.33;;
50932;SDS011;36921;49.006;9.292;2023-03-23T07:27:53;3.65;;;1.25;;
50932;SDS011;36921;49.006;9.292;2023-03-23T07:30:18;1.50;;;1.08;;
50932;SDS011;36921;49.006;9.292;2023-03-23T07:32:44;1.95;;;0.90;;
50932;SDS011;36921;49.006;9.292;2023-03-23T07:35:10;4.25;;;1.30;;
50932;SDS011;36921;49.006;9.292;2023-03-23T07:37:35;5.88;;;1.17;;
50932;SDS011;36921;49.006;9.292;2023-03-23T07:40:01;6.65;;;1.13;;
50932;SDS011;36921;49.006;9.292;2023-03-23T07:42:40;5.37;;;1.10;;
50932;SDS011;36921;49.006;9.292;2023-03-23T07:45:10;5.53;;;1.33;;
50932;SDS011;36921;49.006;9.292;2023-03-23T07:47:37;7.00;;;1.20;;
50932;SDS011;36921;49.006;9.292;2023-03-23T07:50:03;4.38;;;1.00;;
50932;SDS011;36921;49.006;9.292;2023-03-23T07:52:29;4.22;;;1.02;;
50932;SDS011;36921;49.006;9.292;2023-03-23T07:54:56;6.20;;;1.40;;
50932;SDS011;36921;49.006;9.292;2023-03-23T07:57:21;4.78;;;1.73;;
50932;SDS011;36921;49.006;9.292;2023-03-23T07:59:47;6.15;;;1.05;;
50932;SDS011;36921;49.006;9.292;2023-03-23T08:02:14;8.70;;;1.10;;
50932;SDS011;36921;49.006;9.292;2023-03-23T08:04:39;5.80;;;1.20;;
50932;SDS011;36921;49.006;9.292;2023-03-23T08:07:05;1.83;;;1.05;;
50932;SDS011;36921;49.006;9.292;2023-03-23T08:09:30;3.28;;;0.90;;
50932;SDS011;36921;49.006;9.292;2023-03-23T08:11:56;4.18;;;1.27;;
50932;SDS011;36921;49.006;9.292;2023-03-23T08:14:22;1.65;;;1.20;;
50932;SDS011;36921;49.006;9.292;2023-03-23T08:16:51;6.75;;;1.40;;
50932;SDS011;36921;49.006;9.292;2023-03-23T08:19:17;3.55;;;1.05;;
50932;SDS011;36921;49.006;9.292;2023-03-23T08:21:42;3.83;;;1.20;;
50932;SDS011;36921;49.006;9.292;2023-03-23T08:24:08;2.72;;;1.00;;
50932;SDS011;36921;49.006;9.292;2023-03-23T08:26:33;1.92;;;1.20;;
50932;SDS011;36921;49.006;9.292;2023-03-23T08:28:59;1.88;;;1.25;;
50932;SDS011;36921;49.006;9.292;2023-03-23T08:31:25;2.25;;;1.08;;
50932;SDS011;36921;49.006;9.292;2023-03-23T08:33:50;2.53;;;1.20;;
50932;SDS011;36921;49.006;9.292;2023-03-23T08:36:16;2.47;;;1.10;;
50932;SDS011;36921;49.006;9.292;2023-03-23T08:38:43;2.70;;;1.30;;
50932;SDS011;36921;49.006;9.292;2023-03-23T08:41:09;2.33;;;1.10;;
50932;SDS011;36921;49.006;9.292;2023-03-23T08:43:35;1.75;;;1.00;;
50932;SDS011;36921;49.006;9.292;2023-03-23T08:46:01;2.38;;;1.10;;
50932;SDS011;36921;49.006;9.292;2023-03-23T08:48:32;4.45;;;1.38;;
50932;SDS011;36921;49.006;9.292;2023-03-23T08:51:00;3.63;;;1.35;;
50932;SDS011;36921;49.006;9.292;2023-03-23T08:53:26;1.90;;;1.20;;
50932;SDS011;36921;49.006;9.292;2023-03-23T08:55:55;4.32;;;1.23;;
50932;SDS011;36921;49.006;9.292;2023-03-23T08:58:21;1.90;;;1.20;;
50932;SDS011;36921;49.006;9.292;2023-03-23T09:00:47;3.13;;;1.00;;
50932;SDS011;36921;49.006;9.292;2023-03-23T09:03:13;3.17;;;1.17;;
50932;SDS011;36921;49.006;9.292;2023-03-23T09:05:38;3.78;;;1.20;;
50932;SDS011;36921;49.006;9.292;2023-03-23T09:10:33;3.42;;;1.33;;
50932;SDS011;36921;49.006;9.292;2023-03-23T09:12:59;2.17;;;1.38;;
50932;SDS011;36921;49.006;9.292;2023-03-23T09:15:24;3.47;;;1.10;;
50932;SDS011;36921;49.006;9.292;2023-03-23T09:17:51;1.90;;;1.10;;
50932;SDS011;36921;49.006;9.292;2023-03-23T09:20:22;1.70;;;1.00;;
50932;SDS011;36921;49.006;9.292;2023-03-23T09:22:50;4.30;;;1.10;;
50932;SDS011;36921;49.006;9.292;2023-03-23T09:25:18;3.58;;;0.98;;
50932;SDS011;36921;49.006;9.292;2023-03-23T09:27:54;1.98;;;0.93;;
50932;SDS011;36921;49.006;9.292;2023-03-23T09:30:29;3.88;;;1.17;;
50932;SDS011;36921;49.006;9.292;2023-03-23T09:32:59;1.38;;;0.98;;
50932;SDS011;36921;49.006;9.292;2023-03-23T09:35:26;2.25;;;1.02;;
50932;SDS011;36921;49.006;9.292;2023-03-23T09:37:53;5.30;;;1.00;;
50932;SDS011;36921;49.006;9.292;2023-03-23T09:43:06;3.95;;;1.17;;
50932;SDS011;36921;49.006;9.292;2023-03-23T09:51:13;1.60;;;0.73;;
50932;SDS011;36921;49.006;9.292;2023-03-23T09:53:51;1.77;;;0.65;;
50932;SDS011;36921;49.006;9.292;2023-03-23T09:56:19;1.52;;;0.60;;
50932;SDS011;36921;49.006;9.292;2023-03-23T09:58:51;2.88;;;0.73;;
50932;SDS011;36921;49.006;9.292;2023-03-23T10:01:27;1.65;;;0.70;;
50932;SDS011;36921;49.006;9.292;2023-03-23T10:09:39;2.72;;;0.63;;
50932;SDS011;36921;49.006;9.292;2023-03-23T10:12:10;1.70;;;0.80;;
50932;SDS011;36921;49.006;9.292;2023-03-23T10:17:30;3.55;;;0.60;;
50932;SDS011;36921;49.006;9.292;2023-03-23T10:28:41;2.45;;;0.70;;
50932;SDS011;36921;49.006;9.292;2023-03-23T10:31:15;2.58;;;0.82;;
50932;SDS011;36921;49.006;9.292;2023-03-23T10:33:44;1.52;;;0.60;;
50932;SDS011;36921;49.006;9.292;2023-03-23T10:36:14;0.93;;;0.60;;
50932;SDS011;36921;49.006;9.292;2023-03-23T10:39:02;3.35;;;1.10;;
50932;SDS011;36921;49.006;9.292;2023-03-23T10:41:43;2.17;;;0.90;;
50932;SDS011;36921;49.006;9.292;2023-03-23T10:44:12;1.23;;;0.75;;
50932;SDS011;36921;49.006;9.292;2023-03-23T10:49:18;2.13;;;0.68;;
50932;SDS011;36921;49.006;9.292;2023-03-23T10:52:13;0.80;;;0.50;;
50932;SDS011;36921;49.006;9.292;2023-03-23T10:54:51;1.10;;;0.70;;
50932;SDS011;36921;49.006;9.292;2023-03-23T10:57:30;2.55;;;0.68;;
50932;SDS011;36921;49.006;9.292;2023-03-23T11:00:06;2.05;;;0.70;;
50932;SDS011;36921;49.006;9.292;2023-03-23T11:02:45;2.47;;;0.90;;
50932;SDS011;36921;49.006;9.292;2023-03-23T11:05:23;5.28;;;0.60;;
50932;SDS011;36921;49.006;9.292;2023-03-23T11:07:54;1.02;;;0.77;;
50932;SDS011;36921;49.006;9.292;2023-03-23T11:12:51;2.97;;;0.93;;
50932;SDS011;36921;49.006;9.292;2023-03-23T11:18:06;2.00;;;0.70;;
50932;SDS011;36921;49.006;9.292;2023-03-23T11:20:36;1.38;;;0.60;;
50932;SDS011;36921;49.006;9.292;2023-03-23T11:23:14;1.92;;;0.70;;
50932;SDS011;36921;49.006;9.292;2023-03-23T11:28:46;0.90;;;0.68;;
50932;SDS011;36921;49.006;9.292;2023-03-23T11:31:17;5.30;;;0.60;;
50932;SDS011;36921;49.006;9.292;2023-03-23T11:33:52;2.47;;;0.70;;
50932;SDS011;36921;49.006;9.292;2023-03-23T11:36:18;1.15;;;0.80;;
50932;SDS011;36921;49.006;9.292;2023-03-23T11:38:44;0.90;;;0.57;;
50932;SDS011;36921;49.006;9.292;2023-03-23T11:41:11;2.80;;;0.90;;
50932;SDS011;36921;49.006;9.292;2023-03-23T11:43:39;2.20;;;0.80;;
50932;SDS011;36921;49.006;9.292;2023-03-23T11:46:18;4.53;;;0.88;;
50932;SDS011;36921;49.006;9.292;2023-03-23T11:48:55;1.80;;;0.60;;
50932;SDS011;36921;49.006;9.292;2023-03-23T11:51:27;3.70;;;1.10;;
50932;SDS011;36921;49.006;9.292;2023-03-23T11:54:06;1.20;;;0.80;;
50932;SDS011;36921;49.006;9.292;2023-03-23T11:56:42;2.63;;;1.00;;
50932;SDS011;36921;49.006;9.292;2023-03-23T11:59:10;2.47;;;1.08;;
50932;SDS011;36921;49.006;9.292;2023-03-23T12:17:38;2.37;;;1.13;;
50932;SDS011;36921;49.006;9.292;2023-03-23T12:20:15;4.07;;;1.17;;
50932;SDS011;36921;49.006;9.292;2023-03-23T12:22:50;3.15;;;0.98;;
50932;SDS011;36921;49.006;9.292;2023-03-23T12:27:56;0.73;;;0.63;;
50932;SDS011;36921;49.006;9.292;2023-03-23T12:30:35;1.73;;;1.08;;
50932;SDS011;36921;49.006;9.292;2023-03-23T12:35:59;3.22;;;1.20;;
50932;SDS011;36921;49.006;9.292;2023-03-23T12:41:23;1.50;;;1.00;;
50932;SDS011;36921;49.006;9.292;2023-03-23T12:43:57;6.20;;;1.02;;
50932;SDS011;36921;49.006;9.292;2023-03-23T12:46:38;2.35;;;1.13;;
50932;SDS011;36921;49.006;9.292;2023-03-23T12:59:59;1.90;;;0.93;;
50932;SDS011;36921;49.006;9.292;2023-03-23T13:05:27;1.90;;;1.10;;
50932;SDS011;36921;49.006;9.292;2023-03-23T13:08:12;4.00;;;1.20;;
50932;SDS011;36921;49.006;9.292;2023-03-23T13:10:45;2.42;;;0.88;;
50932;SDS011;36921;49.006;9.292;2023-03-23T13:13:23;2.30;;;1.20;;
50932;SDS011;36921;49.006;9.292;2023-03-23T13:18:44;1.00;;;0.88;;
50932;SDS011;36921;49.006;9.292;2023-03-23T13:21:38;3.20;;;1.20;;
50932;SDS011;36921;49.006;9.292;2023-03-23T13:24:09;5.93;;;1.27;;
50932;SDS011;36921;49.006;9.292;2023-03-23T13:26:39;4.75;;;1.20;;
50932;SDS011;36921;49.006;9.292;2023-03-23T13:31:44;1.95;;;0.93;;
50932;SDS011;36921;49.006;9.292;2023-03-23T13:39:26;2.47;;;1.13;;
50932;SDS011;36921;49.006;9.292;2023-03-23T13:42:47;3.40;;;1.10;;
50932;SDS011;36921;49.006;9.292;2023-03-23T13:57:49;9.02;;;1.25;;
50932;SDS011;36921;49.006;9.292;2023-03-23T14:00:26;4.00;;;1.33;;
50932;SDS011;36921;49.006;9.292;2023-03-23T14:03:16;4.60;;;1.25;;
50932;SDS011;36921;49.006;9.292;2023-03-23T14:05:44;1.85;;;1.20;;
50932;SDS011;36921;49.006;9.292;2023-03-23T14:08:20;2.17;;;1.20;;
50932;SDS011;36921;49.006;9.292;2023-03-23T14:13:23;2.17;;;1.20;;
50932;SDS011;36921;49.006;9.292;2023-03-23T14:16:03;3.92;;;1.10;;
50932;SDS011;36921;49.006;9.292;2023-03-23T14:18:39;2.08;;;1.33;;
50932;SDS011;36921;49.006;9.292;2023-03-23T14:21:11;2.17;;;1.00;;
50932;SDS011;36921;49.006;9.292;2023-03-23T14:23:39;3.17;;;1.40;;
50932;SDS011;36921;49.006;9.292;2023-03-23T14:26:12;3.58;;;1.42;;
50932;SDS011;36921;49.006;9.292;2023-03-23T14:28:43;5.88;;;1.30;;
50932;SDS011;36921;49.006;9.292;2023-03-23T14:31:22;1.63;;;1.13;;
50932;SDS011;36921;49.006;9.292;2023-03-23T14:33:49;3.25;;;1.38;;
50932;SDS011;36921;49.006;9.292;2023-03-23T14:36:24;2.10;;;1.00;;
50932;SDS011;36921;49.006;9.292;2023-03-23T14:39:05;3.80;;;1.40;;
50932;SDS011;36921;49.006;9.292;2023-03-23T14:41:37;2.83;;;1.05;;
50932;SDS011;36921;49.006;9.292;2023-03-23T14:44:05;2.42;;;1.33;;
50932;SDS011;36921;49.006;9.292;2023-03-23T14:46:33;2.92;;;1.20;;
50932;SDS011;36921;49.006;9.292;2023-03-23T14:49:03;3.10;;;1.52;;
50932;SDS011;36921;49.006;9.292;2023-03-23T14:51:31;1.85;;;1.20;;
50932;SDS011;36921;49.006;9.292;2023-03-23T14:54:00;3.75;;;1.60;;
50932;SDS011;36921;49.006;9.292;2023-03-23T14:56:31;5.65;;;1.45;;
50932;SDS011;36921;49.006;9.292;2023-03-23T14:59:04;5.07;;;1.20;;
50932;SDS011;36921;49.006;9.292;2023-03-23T15:01:31;3.25;;;1.30;;
50932;SDS011;36921;49.006;9.292;2023-03-23T15:04:00;6.40;;;1.55;;
50932;SDS011;36921;49.006;9.292;2023-03-23T15:06:31;3.08;;;1.70;;
50932;SDS011;36921;49.006;9.292;2023-03-23T15:09:02;3.67;;;1.45;;
50932;SDS011;36921;49.006;9.292;2023-03-23T15:11:34;8.00;;;1.80;;
50932;SDS011;36921;49.006;9.292;2023-03-23T15:14:08;5.35;;;1.90;;
50932;SDS011;36921;49.006;9.292;2023-03-23T15:16:45;7.18;;;1.33;;
50932;SDS011;36921;49.006;9.292;2023-03-23T15:19:17;10.23;;;1.40;;
50932;SDS011;36921;49.006;9.292;2023-03-23T15:21:53;3.72;;;1.38;;
50932;SDS011;36921;49.006;9.292;2023-03-23T15:24:24;2.30;;;1.40;;
50932;SDS011;36921;49.006;9.292;2023-03-23T15:27:48;6.07;;;1.40;;
50932;SDS011;36921;49.006;9.292;2023-03-23T15:29:58;2.50;;;1.02;;
50932;SDS011;36921;49.006;9.292;2023-03-23T15:32:38;5.32;;;1.58;;
50932;SDS011;36921;49.006;9.292;2023-03-23T15:35:11;6.07;;;3.35;;
50932;SDS011;36921;49.006;9.292;2023-03-23T15:37:43;9.43;;;4.07;;
50932;SDS011;36921;49.006;9.292;2023-03-23T15:40:15;4.30;;;2.33;;
50932;SDS011;36921;49.006;9.292;2023-03-23T15:42:42;3.78;;;2.00;;
50932;SDS011;36921;49.006;9.292;2023-03-23T15:50:04;15.15;;;5.85;;
50932;SDS011;36921;49.006;9.292;2023-03-23T15:52:35;5.45;;;2.75;;
50932;SDS011;36921;49.006;9.292;2023-03-23T15:55:02;6.72;;;2.08;;
50932;SDS011;36921;49.006;9.292;2023-03-23T15:57:28;7.57;;;2.20;;
50932;SDS011;36921;49.006;9.292;2023-03-23T15:59:55;3.55;;;1.67;;
50932;SDS011;36921;49.006;9.292;2023-03-23T16:02:21;3.78;;;1.38;;
50932;SDS011;36921;49.006;9.292;2023-03-23T16:04:49;3.13;;;1.80;;
50932;SDS011;36921;49.006;9.292;2023-03-23T16:07:16;4.32;;;1.73;;
50932;SDS011;36921;49.006;9.292;2023-03-23T16:09:46;4.88;;;1.63;;
50932;SDS011;36921;49.006;9.292;2023-03-23T16:12:11;3.20;;;1.55;;
50932;SDS011;36921;49.006;9.292;2023-03-23T16:14:37;7.03;;;1.88;;
50932;SDS011;36921;49.006;9.292;2023-03-23T16:17:03;4.70;;;1.95;;
50932;SDS011;36921;49.006;9.292;2023-03-23T16:19:30;2.60;;;1.70;;
50932;SDS011;36921;49.006;9.292;2023-03-23T16:21:57;4.55;;;2.00;;
50932;SDS011;36921;49.006;9.292;2023-03-23T16:24:22;3.92;;;1.85;;
50932;SDS011;36921;49.006;9.292;2023-03-23T16:26:47;4.95;;;1.77;;
50932;SDS011;36921;49.006;9.292;2023-03-23T16:29:15;2.92;;;1.73;;
50932;SDS011;36921;49.006;9.292;2023-03-23T16:31:41;5.45;;;2.03;;
50932;SDS011;36921;49.006;9.292;2023-03-23T16:34:07;2.70;;;1.50;;
50932;SDS011;36921;49.006;9.292;2023-03-23T16:36:33;3.17;;;1.58;;
50932;SDS011;36921;49.006;9.292;2023-03-23T16:38:59;4.43;;;1.88;;
50932;SDS011;36921;49.006;9.292;2023-03-23T16:41:24;2.30;;;1.30;;
50932;SDS011;36921;49.006;9.292;2023-03-23T16:43:50;2.30;;;1.70;;
50932;SDS011;36921;49.006;9.292;2023-03-23T16:48:44;3.20;;;1.47;;
50932;SDS011;36921;49.006;9.292;2023-03-23T16:51:09;4.55;;;1.80;;
50932;SDS011;36921;49.006;9.292;2023-03-23T16:53:35;3.97;;;1.70;;
50932;SDS011;36921;49.006;9.292;2023-03-23T16:56:01;3.42;;;1.80;;
50932;SDS011;36921;49.006;9.292;2023-03-23T16:58:27;4.97;;;2.08;;
50932;SDS011;36921;49.006;9.292;2023-03-23T17:00:52;7.22;;;2.60;;
50932;SDS011;36921;49.006;9.292;2023-03-23T17:03:18;5.57;;;2.30;;
50932;SDS011;36921;49.006;9.292;2023-03-23T17:05:46;6.40;;;2.80;;
50932;SDS011;36921;49.006;9.292;2023-03-23T17:08:14;6.38;;;3.28;;
50932;SDS011;36921;49.006;9.292;2023-03-23T17:10:40;7.45;;;3.03;;
50932;SDS011;36921;49.006;9.292;2023-03-23T17:13:07;7.28;;;3.60;;
50932;SDS011;36921;49.006;9.292;2023-03-23T17:15:37;5.20;;;2.83;;
50932;SDS011;36921;49.006;9.292;2023-03-23T17:18:04;8.35;;;3.80;;
50932;SDS011;36921;49.006;9.292;2023-03-23T17:20:31;10.73;;;4.32;;
50932;SDS011;36921;49.006;9.292;2023-03-23T17:22:56;13.95;;;3.72;;